createdAt,value
2018-12-25T00:01:42.804Z,8.93
2018-12-25T00:04:11.398Z,9.10
2018-12-25T00:06:40.003Z,9.33
2018-12-25T00:09:08.498Z,9.43
2018-12-25T00:11:37.083Z,9.27
2018-12-25T00:14:06.246Z,9.17
2018-12-25T00:16:34.841Z,8.97
2018-12-25T00:19:06.233Z,9.30
2018-12-25T00:21:33.654Z,9.27
2018-12-25T00:24:02.175Z,9.67
2018-12-25T00:26:30.784Z,9.53
2018-12-25T00:28:59.242Z,9.13
2018-12-25T00:31:27.806Z,9.30
2018-12-25T00:33:56.256Z,9.63
2018-12-25T00:36:24.731Z,9.10
2018-12-25T00:38:53.242Z,9.73
2018-12-25T00:41:21.752Z,10.67
2018-12-25T00:43:50.276Z,10.03
2018-12-25T00:46:18.847Z,9.13
2018-12-25T00:48:47.464Z,9.80
2018-12-25T00:51:16.042Z,10.83
2018-12-25T00:53:44.479Z,11.47
2018-12-25T00:56:12.912Z,10.20
2018-12-25T00:58:41.375Z,10.53
2018-12-25T01:01:09.991Z,11.17
2018-12-25T01:03:38.580Z,10.00
2018-12-25T01:06:07.103Z,9.93
2018-12-25T01:08:35.547Z,10.13
2018-12-25T01:11:03.968Z,10.30
2018-12-25T01:13:32.529Z,11.00
2018-12-25T01:16:00.932Z,10.37
2018-12-25T01:18:29.383Z,10.27
2018-12-25T01:20:57.812Z,10.20
2018-12-25T01:23:26.247Z,9.63
2018-12-25T01:25:54.692Z,9.27
2018-12-25T01:28:23.208Z,9.40
2018-12-25T01:30:51.632Z,9.50
2018-12-25T01:33:20.114Z,9.60
2018-12-25T01:35:48.539Z,8.73
2018-12-25T01:38:17.030Z,9.60
2018-12-25T01:40:45.448Z,9.30
2018-12-25T01:43:13.909Z,9.53
2018-12-25T01:45:42.389Z,8.73
2018-12-25T01:48:10.839Z,8.73
2018-12-25T01:50:39.290Z,8.83
2018-12-25T01:53:07.727Z,9.23
2018-12-25T01:55:36.163Z,8.97
2018-12-25T01:58:04.683Z,8.73
2018-12-25T02:00:33.193Z,8.30
2018-12-25T02:03:01.690Z,8.80
2018-12-25T02:05:30.168Z,9.00
2018-12-25T02:07:58.574Z,9.33
2018-12-25T02:10:27.030Z,9.67
2018-12-25T02:12:55.479Z,8.50
2018-12-25T02:15:23.927Z,8.87
2018-12-25T02:17:52.356Z,8.87
2018-12-25T02:20:20.812Z,8.10
2018-12-25T02:22:49.252Z,9.13
2018-12-25T02:25:17.698Z,8.93
2018-12-25T02:27:46.139Z,8.83
2018-12-25T02:30:14.636Z,8.47
2018-12-25T02:32:43.055Z,9.43
2018-12-25T02:35:11.551Z,8.33
2018-12-25T02:37:40.226Z,8.80
2018-12-25T02:40:08.888Z,8.10
2018-12-25T02:42:37.391Z,9.37
2018-12-25T02:45:06.086Z,9.10
2018-12-25T02:47:34.568Z,8.83
2018-12-25T02:50:03.229Z,9.40
2018-12-25T02:52:31.783Z,8.63
2018-12-25T02:55:00.387Z,8.20
2018-12-25T02:57:29.141Z,8.67
2018-12-25T02:59:57.560Z,7.77
2018-12-25T03:02:26.003Z,8.80
2018-12-25T03:04:54.439Z,8.47
2018-12-25T03:07:22.907Z,8.27
2018-12-25T03:09:51.396Z,7.83
2018-12-25T03:12:19.865Z,8.60
2018-12-25T03:14:48.425Z,8.60
2018-12-25T03:17:16.967Z,8.13
2018-12-25T03:19:45.425Z,7.63
2018-12-25T03:22:14.008Z,7.60
2018-12-25T03:24:42.537Z,8.13
2018-12-25T03:27:10.962Z,7.57
2018-12-25T03:29:39.556Z,8.57
2018-12-25T03:32:08.030Z,8.60
2018-12-25T03:34:36.519Z,8.03
2018-12-25T03:37:05.102Z,8.13
2018-12-25T03:39:33.656Z,8.47
2018-12-25T03:42:02.151Z,8.00
2018-12-25T03:44:30.663Z,8.17
2018-12-25T03:46:59.306Z,8.73
2018-12-25T03:49:27.811Z,7.97
2018-12-25T03:51:56.357Z,8.10
2018-12-25T03:54:24.832Z,8.87
2018-12-25T03:56:53.540Z,8.10
2018-12-25T03:59:21.968Z,7.93
2018-12-25T04:01:50.392Z,7.70
2018-12-25T04:04:18.863Z,7.83
2018-12-25T04:06:47.324Z,8.47
2018-12-25T04:09:15.806Z,8.03
2018-12-25T04:11:44.448Z,7.87
2018-12-25T04:14:13.071Z,8.57
2018-12-25T04:16:41.538Z,8.30
2018-12-25T04:19:09.968Z,7.43
2018-12-25T04:21:38.475Z,7.47
2018-12-25T04:24:06.906Z,7.80
2018-12-25T04:26:35.348Z,8.10
2018-12-25T04:29:03.775Z,7.37
2018-12-25T04:31:32.219Z,7.37
2018-12-25T04:34:00.640Z,7.83
2018-12-25T04:36:29.089Z,8.70
2018-12-25T04:38:57.504Z,8.47
2018-12-25T04:41:25.955Z,7.10
2018-12-25T04:43:54.391Z,7.97
2018-12-25T04:46:22.933Z,8.67
2018-12-25T04:48:51.371Z,8.10
2018-12-25T04:51:19.816Z,7.80
2018-12-25T04:53:48.234Z,7.23
2018-12-25T04:56:16.762Z,8.67
2018-12-25T04:58:45.245Z,7.43
2018-12-25T05:01:13.667Z,7.90
2018-12-25T05:03:42.125Z,8.03
2018-12-25T05:06:10.579Z,8.17
2018-12-25T05:08:39.004Z,8.77
2018-12-25T05:11:07.431Z,8.00
2018-12-25T05:13:35.876Z,8.30
2018-12-25T05:16:04.311Z,7.47
2018-12-25T05:18:32.831Z,8.73
2018-12-25T05:21:01.255Z,8.80
2018-12-25T05:23:29.725Z,8.03
2018-12-25T05:25:58.144Z,7.97
2018-12-25T05:28:26.593Z,8.97
2018-12-25T05:30:55.026Z,8.20
2018-12-25T05:33:23.476Z,9.17
2018-12-25T05:35:52.057Z,7.93
2018-12-25T05:38:20.502Z,8.37
2018-12-25T05:40:48.931Z,7.77
2018-12-25T05:43:17.376Z,8.93
2018-12-25T05:45:45.803Z,8.30
2018-12-25T05:48:14.247Z,7.97
2018-12-25T05:50:46.705Z,7.97
2018-12-25T05:53:12.931Z,8.50
2018-12-25T05:55:41.448Z,7.90
2018-12-25T05:58:09.895Z,9.30
2018-12-25T06:00:38.456Z,8.50
2018-12-25T06:03:06.943Z,8.53
2018-12-25T06:05:35.439Z,7.67
2018-12-25T06:08:03.879Z,8.90
2018-12-25T06:10:32.331Z,8.50
2018-12-25T06:13:00.762Z,8.83
2018-12-25T06:15:29.206Z,8.27
2018-12-25T06:17:57.623Z,7.47
2018-12-25T06:20:26.077Z,8.40
2018-12-25T06:22:54.498Z,8.90
2018-12-25T06:25:22.968Z,8.57
2018-12-25T06:27:51.449Z,8.53
2018-12-25T06:30:19.924Z,8.80
2018-12-25T06:32:48.344Z,8.47
2018-12-25T06:35:16.765Z,7.60
2018-12-25T06:37:45.208Z,8.70
2018-12-25T06:40:13.639Z,8.37
2018-12-25T06:42:42.083Z,7.73
2018-12-25T06:45:10.521Z,8.30
2018-12-25T06:47:38.976Z,7.83
2018-12-25T06:50:07.391Z,8.97
2018-12-25T06:52:35.852Z,7.90
2018-12-25T06:55:04.424Z,8.17
2018-12-25T06:57:32.867Z,8.03
2018-12-25T07:00:01.298Z,9.30
2018-12-25T07:02:29.789Z,8.60
2018-12-25T07:04:58.338Z,8.17
2018-12-25T07:07:26.792Z,8.10
2018-12-25T07:09:55.253Z,8.23
2018-12-25T07:12:23.711Z,8.60
2018-12-25T07:14:52.143Z,8.20
2018-12-25T07:17:20.574Z,8.07
2018-12-25T07:19:49.029Z,8.40
2018-12-25T07:22:17.459Z,7.97
2018-12-25T07:24:45.917Z,8.50
2018-12-25T07:27:14.359Z,8.77
2018-12-25T07:29:42.812Z,8.27
2018-12-25T07:32:11.297Z,7.80
2018-12-25T07:34:39.756Z,8.90
2018-12-25T07:37:08.173Z,9.00
2018-12-25T07:39:36.616Z,8.63
2018-12-25T07:42:05.040Z,9.70
2018-12-25T07:44:33.485Z,8.40
2018-12-25T07:47:01.911Z,8.80
2018-12-25T07:49:30.364Z,8.67
2018-12-25T07:51:58.808Z,8.73
2018-12-25T07:54:27.243Z,9.00
2018-12-25T07:56:55.697Z,9.43
2018-12-25T07:59:24.117Z,8.67
2018-12-25T08:01:52.567Z,8.33
2018-12-25T08:04:20.995Z,7.70
2018-12-25T08:06:49.451Z,8.03
2018-12-25T08:09:17.884Z,8.53
2018-12-25T08:11:46.347Z,9.07
2018-12-25T08:14:14.781Z,9.07
2018-12-25T08:16:43.228Z,8.03
2018-12-25T08:19:11.663Z,9.00
2018-12-25T08:21:40.107Z,8.63
2018-12-25T08:24:08.548Z,8.57
2018-12-25T08:26:37.000Z,8.73
2018-12-25T08:29:05.437Z,8.50
2018-12-25T08:31:33.880Z,8.50
2018-12-25T08:34:02.301Z,8.33
2018-12-25T08:36:30.744Z,8.70
2018-12-25T08:38:59.167Z,8.63
2018-12-25T08:41:28.338Z,8.23
2018-12-25T08:43:56.730Z,7.70
2018-12-25T08:46:25.195Z,8.63
2018-12-25T08:48:53.623Z,8.20
2018-12-25T08:51:22.082Z,8.23
2018-12-25T08:53:50.538Z,8.63
2018-12-25T08:56:18.984Z,11.30
2018-12-25T08:58:47.440Z,9.63
2018-12-25T09:01:15.903Z,10.63
2018-12-25T09:03:44.361Z,9.90
2018-12-25T09:06:12.889Z,9.20
2018-12-25T09:08:41.329Z,8.10
2018-12-25T09:11:09.760Z,11.53
2018-12-25T09:13:38.344Z,7.73
2018-12-25T09:16:06.763Z,8.67
2018-12-25T09:18:35.223Z,8.70
2018-12-25T09:21:03.647Z,8.10
2018-12-25T09:23:32.111Z,7.87
2018-12-25T09:26:00.526Z,8.33
2018-12-25T09:28:29.004Z,8.10
2018-12-25T09:30:57.501Z,7.83
2018-12-25T09:33:25.930Z,7.97
2018-12-25T09:35:54.377Z,8.37
2018-12-25T09:38:22.869Z,8.90
2018-12-25T09:40:51.305Z,9.57
2018-12-25T09:43:19.797Z,8.83
2018-12-25T09:45:48.238Z,8.13
2018-12-25T09:48:16.660Z,8.37
2018-12-25T09:50:45.119Z,8.30
2018-12-25T09:53:14.952Z,9.07
2018-12-25T09:55:43.529Z,8.03
2018-12-25T09:58:11.951Z,8.97
2018-12-25T10:00:40.474Z,8.13
2018-12-25T10:03:08.906Z,8.20
2018-12-25T10:05:37.352Z,8.37
2018-12-25T10:08:05.793Z,7.90
2018-12-25T10:10:34.251Z,8.50
2018-12-25T10:13:02.903Z,8.00
2018-12-25T10:15:31.364Z,8.13
2018-12-25T10:17:59.795Z,9.07
2018-12-25T10:20:28.370Z,9.07
2018-12-25T10:22:59.555Z,9.10
2018-12-25T10:25:28.136Z,9.27
2018-12-25T10:27:56.692Z,9.43
2018-12-25T10:30:25.371Z,8.70
2018-12-25T10:32:54.724Z,8.80
2018-12-25T10:35:23.408Z,9.47
2018-12-25T10:37:52.096Z,8.93
2018-12-25T10:40:20.652Z,8.83
2018-12-25T10:42:49.177Z,8.87
2018-12-25T10:45:17.665Z,10.57
2018-12-25T10:47:46.108Z,10.30
2018-12-25T10:50:14.556Z,11.43
2018-12-25T10:52:43.003Z,12.70
2018-12-25T10:55:11.427Z,12.40
2018-12-25T10:57:39.943Z,12.57
2018-12-25T11:00:13.195Z,12.20
2018-12-25T11:02:41.717Z,12.87
2018-12-25T11:05:10.160Z,11.63
2018-12-25T11:07:38.608Z,12.87
2018-12-25T11:10:08.291Z,11.80
2018-12-25T11:12:36.755Z,12.37
2018-12-25T11:15:06.224Z,12.10
2018-12-25T11:17:34.675Z,12.10
2018-12-25T11:20:11.244Z,12.17
2018-12-25T11:22:33.387Z,13.37
2018-12-25T11:25:01.925Z,13.63
2018-12-25T11:27:30.355Z,13.70
2018-12-25T11:29:58.840Z,13.67
2018-12-25T11:32:27.271Z,13.90
2018-12-25T11:34:55.748Z,13.30
2018-12-25T11:37:24.177Z,13.30
2018-12-25T11:39:52.664Z,12.77
2018-12-25T11:42:21.149Z,13.47
2018-12-25T11:44:51.373Z,12.17
2018-12-25T11:47:19.839Z,12.30
2018-12-25T11:49:48.309Z,13.33
2018-12-25T11:52:16.735Z,13.37
2018-12-25T11:54:45.167Z,13.33
2018-12-25T11:57:13.614Z,15.33
2018-12-25T11:59:42.094Z,13.47
2018-12-25T12:02:17.051Z,13.77
2018-12-25T12:04:40.838Z,18.23
2018-12-25T12:07:09.282Z,20.10
2018-12-25T12:09:37.722Z,16.23
2018-12-25T12:12:06.174Z,15.57
2018-12-25T12:14:34.698Z,14.70
2018-12-25T12:17:03.183Z,15.27
2018-12-25T12:19:31.677Z,16.87
2018-12-25T12:22:00.145Z,17.43
2018-12-25T12:24:28.577Z,15.40
2018-12-25T12:26:57.060Z,15.37
2018-12-25T12:29:25.591Z,13.80
2018-12-25T12:31:54.076Z,14.73
2018-12-25T12:34:22.562Z,15.23
2018-12-25T12:36:51.064Z,14.50
2018-12-25T12:39:19.532Z,15.57
2018-12-25T12:41:48.052Z,15.37
2018-12-25T12:44:16.586Z,14.40
2018-12-25T12:46:45.030Z,14.67
2018-12-25T12:49:13.508Z,13.83
2018-12-25T12:51:42.019Z,13.00
2018-12-25T12:54:10.467Z,13.73
2018-12-25T12:56:38.911Z,13.37
2018-12-25T12:59:07.377Z,13.47
2018-12-25T13:01:35.798Z,14.07
2018-12-25T13:04:04.278Z,21.07
2018-12-25T13:06:32.708Z,14.70
2018-12-25T13:09:01.162Z,14.40
2018-12-25T13:11:29.600Z,13.70
2018-12-25T13:13:58.081Z,13.43
2018-12-25T13:16:26.597Z,14.63
2018-12-25T13:18:55.120Z,12.97
2018-12-25T13:21:24.470Z,13.67
2018-12-25T13:23:53.006Z,13.20
2018-12-25T13:26:21.460Z,12.70
2018-12-25T13:28:49.985Z,12.70
2018-12-25T13:31:18.460Z,13.10
2018-12-25T13:33:46.924Z,12.57
2018-12-25T13:36:15.367Z,12.00
2018-12-25T13:38:43.808Z,13.37
2018-12-25T13:41:12.243Z,12.83
2018-12-25T13:43:40.711Z,12.67
2018-12-25T13:46:09.155Z,12.60
2018-12-25T13:48:37.588Z,13.07
2018-12-25T13:51:06.122Z,12.27
2018-12-25T13:53:34.611Z,11.77
2018-12-25T13:56:03.152Z,11.93
2018-12-25T13:58:31.578Z,14.80
2018-12-25T14:01:00.301Z,12.20
2018-12-25T14:03:28.747Z,11.27
2018-12-25T14:05:57.470Z,10.50
2018-12-25T14:08:26.086Z,10.63
2018-12-25T14:10:54.539Z,11.00
2018-12-25T14:13:22.973Z,12.20
2018-12-25T14:15:51.437Z,12.07
2018-12-25T14:18:19.868Z,11.23
2018-12-25T14:20:48.320Z,10.87
2018-12-25T14:23:16.996Z,11.30
2018-12-25T14:25:45.477Z,11.13
2018-12-25T14:28:13.920Z,10.73
2018-12-25T14:30:42.353Z,10.53
2018-12-25T14:33:10.812Z,12.03
2018-12-25T14:35:39.332Z,11.97
2018-12-25T14:38:07.791Z,10.97
2018-12-25T14:40:36.244Z,11.40
2018-12-25T14:43:04.695Z,11.30
2018-12-25T14:45:33.139Z,12.20
2018-12-25T14:48:01.586Z,11.13
2018-12-25T14:50:30.039Z,10.47
2018-12-25T14:52:58.503Z,11.40
2018-12-25T14:55:26.934Z,11.27
2018-12-25T14:57:55.411Z,11.83
2018-12-25T15:00:24.136Z,11.40
2018-12-25T15:02:52.683Z,15.53
2018-12-25T15:05:21.152Z,11.33
2018-12-25T15:07:49.692Z,11.17
2018-12-25T15:10:18.226Z,15.00
2018-12-25T15:12:46.701Z,11.23
2018-12-25T15:15:15.148Z,11.43
2018-12-25T15:17:43.603Z,12.07
2018-12-25T15:20:12.050Z,11.43
2018-12-25T15:22:40.743Z,11.50
2018-12-25T15:25:09.255Z,11.83
2018-12-25T15:27:37.722Z,12.67
2018-12-25T15:30:07.219Z,12.43
2018-12-25T15:32:35.671Z,12.43
2018-12-25T15:35:07.175Z,12.30
2018-12-25T15:37:35.607Z,12.53
2018-12-25T15:40:05.003Z,12.07
2018-12-25T15:42:33.438Z,13.97
2018-12-25T15:45:01.901Z,13.30
2018-12-25T15:47:30.335Z,12.50
2018-12-25T15:49:58.787Z,13.30
2018-12-25T15:52:27.232Z,13.87
2018-12-25T15:54:55.682Z,13.77
2018-12-25T15:57:24.232Z,14.63
2018-12-25T15:59:52.743Z,14.87
2018-12-25T16:02:21.173Z,14.97
2018-12-25T16:04:49.634Z,15.50
2018-12-25T16:07:18.063Z,17.17
2018-12-25T16:09:46.540Z,16.17
2018-12-25T16:12:14.980Z,15.30
2018-12-25T16:14:43.421Z,23.80
2018-12-25T16:17:11.893Z,18.93
2018-12-25T16:19:43.631Z,15.73
2018-12-25T16:22:12.090Z,14.13
2018-12-25T16:24:40.510Z,14.80
2018-12-25T16:27:08.976Z,13.47
2018-12-25T16:29:37.416Z,14.87
2018-12-25T16:32:05.882Z,14.23
2018-12-25T16:34:34.308Z,14.73
2018-12-25T16:37:02.784Z,16.07
2018-12-25T16:39:31.198Z,14.93
2018-12-25T16:41:59.659Z,15.20
2018-12-25T16:44:28.152Z,15.37
2018-12-25T16:46:56.624Z,18.33
2018-12-25T16:49:25.082Z,15.33
2018-12-25T16:51:53.563Z,15.77
2018-12-25T16:54:22.088Z,14.90
2018-12-25T16:56:50.640Z,14.30
2018-12-25T16:59:19.059Z,15.57
2018-12-25T17:01:47.544Z,15.07
2018-12-25T17:04:16.002Z,14.40
2018-12-25T17:06:44.455Z,14.87
2018-12-25T17:09:12.953Z,16.63
2018-12-25T17:11:41.404Z,15.30
2018-12-25T17:14:09.878Z,16.37
2018-12-25T17:16:38.314Z,14.70
2018-12-25T17:19:06.782Z,14.97
2018-12-25T17:21:35.228Z,15.17
2018-12-25T17:24:03.671Z,16.13
2018-12-25T17:26:32.138Z,15.23
2018-12-25T17:29:00.591Z,16.17
2018-12-25T17:31:29.155Z,16.17
2018-12-25T17:33:57.620Z,15.93
2018-12-25T17:36:26.055Z,14.93
2018-12-25T17:38:54.594Z,13.50
2018-12-25T17:41:23.116Z,13.90
2018-12-25T17:43:51.591Z,13.83
2018-12-25T17:46:20.030Z,14.63
2018-12-25T17:48:48.484Z,14.93
2018-12-25T17:51:17.534Z,14.77
2018-12-25T17:53:46.041Z,14.90
2018-12-25T17:56:14.481Z,16.03
2018-12-25T17:58:42.957Z,16.13
2018-12-25T18:01:11.456Z,18.30
2018-12-25T18:03:40.000Z,17.17
2018-12-25T18:06:08.485Z,18.90
2018-12-25T18:08:36.947Z,18.20
2018-12-25T18:11:05.532Z,18.63
2018-12-25T18:13:33.963Z,16.87
2018-12-25T18:16:02.496Z,16.83
2018-12-25T18:18:30.963Z,16.07
2018-12-25T18:20:59.436Z,16.07
2018-12-25T18:23:27.905Z,16.00
2018-12-25T18:25:59.939Z,15.87
2018-12-25T18:28:28.187Z,16.30
2018-12-25T18:30:56.727Z,15.60
2018-12-25T18:33:25.147Z,16.13
2018-12-25T18:35:53.632Z,15.70
2018-12-25T18:38:22.128Z,16.30
2018-12-25T18:40:50.605Z,15.93
2018-12-25T18:43:19.045Z,16.73
2018-12-25T18:45:47.561Z,17.03
2018-12-25T18:48:16.024Z,18.43
2018-12-25T18:50:44.499Z,17.33
2018-12-25T18:53:12.987Z,16.87
2018-12-25T18:55:41.484Z,17.07
2018-12-25T18:58:09.976Z,17.77
2018-12-25T19:00:38.423Z,15.57
2018-12-25T19:03:06.938Z,17.40
2018-12-25T19:05:35.483Z,17.43
2018-12-25T19:08:04.132Z,17.40
2018-12-25T19:10:32.593Z,15.77
2018-12-25T19:13:01.011Z,16.90
2018-12-25T19:15:29.436Z,17.67
2018-12-25T19:17:57.895Z,18.17
2018-12-25T19:20:26.332Z,17.17
2018-12-25T19:22:54.791Z,17.87
2018-12-25T19:25:23.218Z,17.13
2018-12-25T19:27:51.686Z,17.57
2018-12-25T19:30:21.555Z,17.63
2018-12-25T19:32:50.045Z,18.10
2018-12-25T19:35:18.552Z,18.80
2018-12-25T19:37:47.079Z,19.57
2018-12-25T19:40:15.546Z,18.03
2018-12-25T19:42:43.999Z,19.17
2018-12-25T19:45:12.584Z,18.17
2018-12-25T19:47:41.033Z,19.10
2018-12-25T19:50:09.729Z,21.50
2018-12-25T19:52:38.220Z,20.30
2018-12-25T19:55:07.403Z,18.27
2018-12-25T19:57:35.868Z,18.73
2018-12-25T20:00:06.736Z,19.40
2018-12-25T20:02:35.338Z,19.30
2018-12-25T20:05:12.773Z,18.57
2018-12-25T20:07:56.083Z,18.07
2018-12-25T20:10:33.634Z,16.77
2018-12-25T20:13:22.803Z,17.30
2018-12-25T20:16:03.062Z,17.90
2018-12-25T20:18:52.207Z,17.97
2018-12-25T20:21:43.102Z,19.33
2018-12-25T20:24:26.507Z,19.33
2018-12-25T20:27:20.140Z,19.20
2018-12-25T20:30:00.540Z,18.63
2018-12-25T20:32:54.491Z,19.50
2018-12-25T20:35:58.860Z,20.67
2018-12-25T20:38:54.152Z,19.83
2018-12-25T20:41:35.436Z,20.87
2018-12-25T20:44:21.636Z,20.13
2018-12-25T20:47:09.468Z,21.17
2018-12-25T20:49:58.668Z,23.00
2018-12-25T20:52:52.408Z,21.77
2018-12-25T20:55:32.026Z,21.27
2018-12-25T20:58:15.246Z,22.20
2018-12-25T21:01:08.875Z,21.70
2018-12-25T21:03:46.117Z,21.13
2018-12-25T21:06:38.265Z,23.90
2018-12-25T21:09:12.660Z,22.97
2018-12-25T21:12:17.180Z,21.97
2018-12-25T21:14:54.220Z,22.13
2018-12-25T21:17:49.388Z,23.07
2018-12-25T21:20:38.765Z,21.17
2018-12-25T21:23:43.035Z,23.87
2018-12-25T21:26:47.362Z,22.43
2018-12-25T21:29:15.872Z,24.47
2018-12-25T21:31:44.490Z,24.17
2018-12-25T21:34:13.070Z,24.00
2018-12-25T21:36:44.601Z,23.07
2018-12-25T21:39:13.023Z,22.70
2018-12-25T21:41:42.074Z,23.43
2018-12-25T21:44:10.634Z,21.97
2018-12-25T21:46:39.163Z,23.20
2018-12-25T21:49:09.240Z,22.50
2018-12-25T21:51:37.839Z,22.27
2018-12-25T21:54:06.383Z,22.27
2018-12-25T21:56:35.324Z,22.83
2018-12-25T21:59:03.859Z,22.90
2018-12-25T22:01:32.383Z,21.73
2018-12-25T22:04:01.067Z,21.80
2018-12-25T22:06:29.515Z,22.70
2018-12-25T22:08:57.980Z,22.50
2018-12-25T22:11:26.404Z,22.17
2018-12-25T22:13:54.928Z,24.03
2018-12-25T22:16:23.502Z,23.90
2018-12-25T22:18:51.983Z,24.13
2018-12-25T22:21:20.416Z,24.10
2018-12-25T22:23:48.943Z,25.33
2018-12-25T22:26:17.406Z,24.83
2018-12-25T22:28:45.837Z,24.47
2018-12-25T22:31:14.308Z,25.50
2018-12-25T22:33:42.746Z,26.40
2018-12-25T22:36:11.232Z,23.77
2018-12-25T22:38:39.687Z,23.53
2018-12-25T22:41:08.140Z,25.57
2018-12-25T22:43:36.584Z,25.93
2018-12-25T22:46:05.048Z,24.10
2018-12-25T22:48:33.503Z,23.90
2018-12-25T22:51:01.953Z,24.00
2018-12-25T22:53:30.391Z,23.23
2018-12-25T22:55:58.848Z,24.50
2018-12-25T22:58:27.307Z,23.87
2018-12-25T23:00:55.938Z,24.00
2018-12-25T23:03:24.414Z,24.43
2018-12-25T23:05:52.915Z,24.47
2018-12-25T23:08:21.369Z,25.73
2018-12-25T23:10:49.824Z,23.33
2018-12-25T23:13:18.247Z,24.30
2018-12-25T23:15:46.720Z,24.67
2018-12-25T23:18:15.149Z,23.83
2018-12-25T23:20:43.587Z,24.80
2018-12-25T23:23:12.025Z,24.83
2018-12-25T23:25:44.570Z,25.33
2018-12-25T23:28:10.623Z,26.30
2018-12-25T23:30:39.053Z,26.93
2018-12-25T23:33:07.503Z,23.47
2018-12-25T23:35:35.937Z,24.00
2018-12-25T23:38:04.425Z,23.60
2018-12-25T23:40:33.023Z,23.50
2018-12-25T23:43:01.511Z,22.87
2018-12-25T23:45:30.027Z,24.63
2018-12-25T23:47:59.295Z,22.27
2018-12-25T23:50:27.764Z,23.13
2018-12-25T23:52:56.257Z,22.43
2018-12-25T23:55:24.704Z,21.13
2018-12-25T23:57:53.137Z,22.57
